createdAt,value
2022-09-09T00:01:06.955Z,16.41
2022-09-09T00:04:32.203Z,16.469999
2022-09-09T00:07:57.464Z,16.51
2022-09-09T00:11:22.723Z,16.540001
2022-09-09T00:14:47.931Z,16.559999
2022-09-09T00:18:13.202Z,16.610001
2022-09-09T00:21:38.447Z,16.639999
2022-09-09T00:25:03.716Z,16.690001
2022-09-09T00:28:28.978Z,16.719999
2022-09-09T00:31:54.187Z,16.719999
2022-09-09T00:35:19.420Z,16.74
2022-09-09T00:38:44.678Z,16.76
2022-09-09T00:42:09.925Z,16.790001
2022-09-09T00:45:35.191Z,16.809999
2022-09-09T00:49:00.401Z,16.82
2022-09-09T00:52:25.644Z,16.84
2022-09-09T00:55:50.928Z,16.84
2022-09-09T00:59:16.170Z,16.860001
2022-09-09T01:02:41.470Z,16.85
2022-09-09T01:06:06.611Z,16.84
2022-09-09T01:09:31.861Z,16.83
2022-09-09T01:12:57.103Z,16.809999
2022-09-09T01:16:22.355Z,16.790001
2022-09-09T01:19:47.602Z,16.76
2022-09-09T01:23:12.821Z,16.73
2022-09-09T01:26:38.059Z,16.719999
2022-09-09T01:30:03.316Z,16.73
2022-09-09T01:33:28.545Z,16.719999
2022-09-09T01:36:53.811Z,16.709999
2022-09-09T01:40:19.045Z,16.719999
2022-09-09T01:43:44.296Z,16.73
2022-09-09T01:47:09.594Z,16.73
2022-09-09T01:50:34.831Z,16.709999
2022-09-09T01:54:00.110Z,16.690001
2022-09-09T01:57:25.334Z,16.700001
2022-09-09T02:00:50.655Z,16.690001
2022-09-09T02:04:15.811Z,16.700001
2022-09-09T02:07:41.058Z,16.709999
2022-09-09T02:11:06.307Z,16.690001
2022-09-09T02:14:31.536Z,16.66
2022-09-09T02:17:56.766Z,16.65
2022-09-09T02:21:21.979Z,16.610001
2022-09-09T02:24:47.235Z,16.6
2022-09-09T02:28:12.508Z,16.57
2022-09-09T02:31:37.715Z,16.57
2022-09-09T02:35:03.492Z,16.559999
2022-09-09T02:38:28.778Z,16.559999
2022-09-09T02:41:53.979Z,16.540001
2022-09-09T02:45:19.228Z,16.540001
2022-09-09T02:48:44.453Z,16.51
2022-09-09T02:52:09.690Z,16.51
2022-09-09T02:55:34.924Z,16.49
2022-09-09T02:59:00.158Z,16.469999
2022-09-09T03:02:25.483Z,16.469999
2022-09-09T03:05:50.624Z,16.48
2022-09-09T03:09:15.882Z,16.49
2022-09-09T03:12:41.116Z,16.52
2022-09-09T03:16:06.394Z,16.530001
2022-09-09T03:19:31.594Z,16.559999
2022-09-09T03:22:56.784Z,16.59
2022-09-09T03:26:22.035Z,16.58
2022-09-09T03:29:47.258Z,16.58
2022-09-09T03:33:12.532Z,16.610001
2022-09-09T03:36:37.808Z,16.610001
2022-09-09T03:40:03.068Z,16.620001
2022-09-09T03:43:28.236Z,16.66
2022-09-09T03:46:53.462Z,16.700001
2022-09-09T03:50:18.705Z,16.700001
2022-09-09T03:53:43.972Z,16.709999
2022-09-09T03:57:09.199Z,16.709999
2022-09-09T04:00:34.449Z,16.709999
2022-09-09T04:03:59.682Z,16.709999
2022-09-09T04:07:24.913Z,16.719999
2022-09-09T04:10:50.210Z,16.75
2022-09-09T04:14:15.412Z,16.76
2022-09-09T04:17:40.675Z,16.77
2022-09-09T04:21:05.925Z,16.77
2022-09-09T04:24:31.140Z,16.76
2022-09-09T04:27:56.405Z,16.76
2022-09-09T04:31:21.704Z,16.75
2022-09-09T04:34:46.918Z,16.76
2022-09-09T04:38:12.186Z,16.75
2022-09-09T04:41:37.428Z,16.74
2022-09-09T04:45:02.709Z,16.74
2022-09-09T04:48:27.920Z,16.74
2022-09-09T04:51:53.115Z,16.77
2022-09-09T04:55:18.295Z,16.809999
2022-09-09T04:58:43.530Z,16.860001
2022-09-09T05:02:08.828Z,16.940001
2022-09-09T05:05:33.915Z,16.969999
2022-09-09T05:08:59.150Z,16.98
2022-09-09T05:12:24.337Z,17.01
2022-09-09T05:15:49.517Z,17.07
2022-09-09T05:19:14.707Z,17.07
2022-09-09T05:22:39.870Z,17.059999
2022-09-09T05:26:05.059Z,17.08
2022-09-09T05:29:30.285Z,17.08
2022-09-09T05:32:55.488Z,17.040001
2022-09-09T05:36:20.700Z,17.030001
2022-09-09T05:39:45.934Z,17.049999
2022-09-09T05:43:11.065Z,17.07
2022-09-09T05:46:36.282Z,17.08
2022-09-09T05:50:01.452Z,17.09
2022-09-09T05:53:26.663Z,17.07
2022-09-09T05:56:52.041Z,17.049999
2022-09-09T06:00:17.028Z,17.049999
2022-09-09T06:03:42.193Z,17.049999
2022-09-09T06:07:07.423Z,17.049999
2022-09-09T06:10:32.650Z,17.08
2022-09-09T06:13:57.861Z,17.08
2022-09-09T06:17:23.053Z,17.08
2022-09-09T06:20:48.267Z,17.1
2022-09-09T06:24:13.471Z,17.09
2022-09-09T06:27:38.724Z,17.120001
2022-09-09T06:31:04.006Z,17.139999
2022-09-09T06:34:29.145Z,17.219999
2022-09-09T06:37:54.317Z,17.290001
2022-09-09T06:41:19.541Z,17.34
2022-09-09T06:44:44.791Z,17.34
2022-09-09T06:48:09.981Z,17.33
2022-09-09T06:51:35.181Z,17.33
2022-09-09T06:55:00.359Z,17.309999
2022-09-09T06:58:25.541Z,17.309999
2022-09-09T07:01:54.974Z,17.34
2022-09-09T07:05:15.915Z,17.35
2022-09-09T07:08:41.091Z,17.35
2022-09-09T07:12:06.302Z,17.35
2022-09-09T07:15:31.511Z,17.379999
2022-09-09T07:18:56.756Z,17.370001
2022-09-09T07:22:21.936Z,17.379999
2022-09-09T07:25:47.137Z,17.4
2022-09-09T07:29:12.365Z,17.440001
2022-09-09T07:32:37.571Z,17.51
2022-09-09T07:36:02.831Z,17.6
2022-09-09T07:39:28.010Z,17.67
2022-09-09T07:42:53.210Z,17.73
2022-09-09T07:46:18.449Z,17.82
2022-09-09T07:49:43.665Z,17.950001
2022-09-09T07:53:08.899Z,18.08
2022-09-09T07:56:34.093Z,18.17
2022-09-09T07:59:59.315Z,18.219999
2022-09-09T08:03:24.545Z,18.27
2022-09-09T08:06:49.733Z,18.26
2022-09-09T08:10:15.012Z,18.280001
2022-09-09T08:13:40.194Z,18.360001
2022-09-09T08:17:05.383Z,18.469999
2022-09-09T08:20:30.578Z,18.620001
2022-09-09T08:23:57.915Z,18.74
2022-09-09T08:27:21.103Z,18.860001
2022-09-09T08:30:46.377Z,18.969999
2022-09-09T08:34:11.567Z,19.040001
2022-09-09T08:37:36.767Z,19.110001
2022-09-09T08:41:01.950Z,19.17
2022-09-09T08:44:27.142Z,19.209999
2022-09-09T08:47:52.280Z,19.26
2022-09-09T08:51:17.483Z,19.290001
2022-09-09T08:54:51.979Z,19.24
2022-09-09T08:58:07.934Z,19.16
2022-09-09T09:01:33.205Z,19.09
2022-09-09T09:04:58.361Z,19
2022-09-09T09:08:23.520Z,18.959999
2022-09-09T09:11:48.741Z,18.950001
2022-09-09T09:15:13.993Z,18.959999
2022-09-09T09:18:39.267Z,18.98
2022-09-09T09:22:04.405Z,19
2022-09-09T09:25:29.680Z,19.049999
2022-09-09T09:28:54.899Z,19.09
2022-09-09T09:32:20.159Z,19.1
2022-09-09T09:35:45.412Z,19.129999
2022-09-09T09:42:35.979Z,19.280001
2022-09-09T09:46:16.510Z,19.4
2022-09-09T09:49:26.455Z,19.540001
2022-09-09T09:52:51.748Z,19.67
2022-09-09T09:56:16.951Z,19.82
2022-09-09T09:59:42.233Z,20.02
2022-09-09T10:03:07.449Z,20.219999
2022-09-09T10:06:32.667Z,20.389999
2022-09-09T10:09:57.949Z,20.530001
2022-09-09T10:13:23.136Z,20.65
2022-09-09T10:16:48.349Z,20.780001
2022-09-09T10:20:13.554Z,20.82
2022-09-09T10:23:38.826Z,20.92
2022-09-09T10:27:04.078Z,21.030001
2022-09-09T10:30:29.355Z,20.940001
2022-09-09T10:33:54.606Z,20.74
2022-09-09T10:37:19.798Z,20.52
2022-09-09T10:40:44.979Z,20.35
2022-09-09T10:44:10.200Z,20.4
2022-09-09T10:47:35.363Z,20.51
2022-09-09T10:51:03.674Z,20.5
2022-09-09T10:54:25.729Z,20.41
2022-09-09T10:57:50.929Z,20.540001
2022-09-09T11:01:16.177Z,20.790001
2022-09-09T11:04:41.327Z,21.040001
2022-09-09T11:08:06.529Z,21.290001
2022-09-09T11:11:31.729Z,21.57
2022-09-09T11:14:56.939Z,21.799999
2022-09-09T11:18:22.144Z,21.969999
2022-09-09T11:21:47.325Z,22.059999
2022-09-09T11:25:12.538Z,22.01
2022-09-09T11:28:37.807Z,21.860001
2022-09-09T11:32:02.932Z,21.66
2022-09-09T11:35:28.121Z,21.459999
2022-09-09T11:38:53.273Z,21.48
2022-09-09T11:42:18.445Z,21.469999
2022-09-09T11:45:43.679Z,21.459999
2022-09-09T11:49:08.867Z,21.469999
2022-09-09T11:52:34.082Z,21.5
2022-09-09T11:55:59.254Z,21.559999
2022-09-09T11:59:24.486Z,21.559999
2022-09-09T12:02:49.693Z,21.700001
2022-09-09T12:06:14.890Z,21.860001
2022-09-09T12:09:40.118Z,22.030001
2022-09-09T12:13:05.284Z,22.190001
2022-09-09T12:16:30.546Z,22.34
2022-09-09T12:19:55.772Z,22.459999
2022-09-09T12:23:20.973Z,22.41
2022-09-09T12:26:46.186Z,22.41
2022-09-09T12:30:11.339Z,22.41
2022-09-09T12:33:36.652Z,22.469999
2022-09-09T12:37:01.726Z,22.459999
2022-09-09T12:40:27.041Z,22.4
2022-09-09T12:43:52.252Z,22.32
2022-09-09T12:47:17.457Z,22.25
2022-09-09T12:50:42.657Z,22.18
2022-09-09T12:54:07.862Z,22.07
2022-09-09T12:57:33.047Z,22.059999
2022-09-09T13:00:59.135Z,22.059999
2022-09-09T13:04:24.294Z,22.040001
2022-09-09T13:07:49.512Z,21.98
2022-09-09T13:11:14.727Z,21.870001
2022-09-09T13:14:39.961Z,21.790001
2022-09-09T13:18:08.043Z,21.68
2022-09-09T13:21:34.257Z,21.58
2022-09-09T13:25:00.810Z,21.5
2022-09-09T13:28:33.773Z,21.389999
2022-09-09T13:31:57.460Z,21.25
2022-09-09T13:42:26.530Z,20.15
2022-09-09T13:45:51.768Z,19.91
2022-09-09T13:49:16.988Z,19.860001
2022-09-09T13:52:42.213Z,19.870001
2022-09-09T13:56:07.472Z,19.889999
2022-09-09T14:00:03.953Z,19.98
2022-09-09T14:02:57.864Z,20.07
2022-09-09T14:06:23.354Z,20.129999
2022-09-09T14:09:48.586Z,20.190001
2022-09-09T14:13:13.774Z,20.24
2022-09-09T14:16:39.021Z,20.27
2022-09-09T14:20:04.188Z,20.290001
2022-09-09T14:23:29.354Z,20.299999
2022-09-09T14:26:54.545Z,20.280001
2022-09-09T15:03:48.623Z,17.98
2022-09-09T15:07:13.780Z,18.93
2022-09-09T15:10:38.980Z,19.15
2022-09-09T15:14:04.142Z,19.370001
2022-09-09T15:17:29.334Z,19.59
2022-09-09T15:20:54.555Z,19.780001
2022-09-09T15:24:19.713Z,19.91
2022-09-09T15:27:44.896Z,19.99
2022-09-09T15:31:10.126Z,20.09
2022-09-09T15:34:35.303Z,20.190001
2022-09-09T15:38:00.530Z,20.25
2022-09-09T15:41:25.760Z,20.280001
2022-09-09T15:44:50.970Z,20.32
2022-09-09T15:48:16.181Z,20.35
2022-09-09T15:51:43.053Z,20.360001
2022-09-09T15:55:06.570Z,20.35
2022-09-09T15:58:31.717Z,20.35
2022-09-09T16:01:56.956Z,20.360001
2022-09-09T16:05:22.061Z,20.35
2022-09-09T16:08:47.227Z,20.32
2022-09-09T16:12:12.431Z,20.280001
2022-09-09T16:15:37.625Z,20.209999
2022-09-09T16:19:02.804Z,20.139999
2022-09-09T16:22:28.370Z,20.07
2022-09-09T16:25:53.923Z,20.01
2022-09-09T16:29:19.116Z,19.959999
2022-09-09T16:32:44.303Z,19.92
2022-09-09T16:36:09.493Z,19.83
2022-09-09T16:39:34.975Z,19.76
2022-09-09T16:42:59.918Z,19.67
2022-09-09T16:46:25.585Z,19.57
2022-09-09T16:49:50.503Z,19.5
2022-09-09T16:53:15.738Z,19.42
2022-09-09T16:56:40.918Z,19.35
2022-09-09T17:00:06.216Z,19.309999
2022-09-09T17:03:31.503Z,19.290001
2022-09-09T17:06:56.743Z,19.26
2022-09-09T17:10:21.993Z,19.190001
2022-09-09T17:13:47.279Z,19.15
2022-09-09T17:17:30.456Z,19.1
2022-09-09T17:20:46.269Z,19.030001
2022-09-09T17:24:02.975Z,18.959999
2022-09-09T17:27:28.202Z,18.889999
2022-09-09T17:30:53.561Z,18.82
2022-09-09T17:34:18.714Z,18.76
2022-09-09T17:37:43.912Z,18.709999
2022-09-09T17:41:09.085Z,18.73
2022-09-09T17:44:34.301Z,18.73
2022-09-09T17:47:59.525Z,18.73
2022-09-09T17:51:24.723Z,18.75
2022-09-09T17:54:49.919Z,18.75
2022-09-09T17:58:15.131Z,18.76
2022-09-09T18:01:40.490Z,18.77
2022-09-09T18:05:05.641Z,18.799999
2022-09-09T18:08:34.707Z,18.77
2022-09-09T18:11:56.038Z,18.75
2022-09-09T18:15:33.577Z,18.719999
2022-09-09T18:18:46.478Z,18.620001
2022-09-09T18:22:11.701Z,18.51
2022-09-09T18:25:36.953Z,18.41
2022-09-09T18:29:02.202Z,18.360001
2022-09-09T18:32:27.424Z,18.280001
2022-09-09T18:35:52.661Z,18.23
2022-09-09T18:39:17.894Z,18.219999
2022-09-09T18:42:43.130Z,18.17
2022-09-09T18:46:08.422Z,18.07
2022-09-09T18:49:33.593Z,18.01
2022-09-09T18:52:58.836Z,17.98
2022-09-09T18:56:24.079Z,17.950001
2022-09-09T18:59:49.324Z,17.92
2022-09-09T19:03:14.594Z,17.879999
2022-09-09T19:06:39.777Z,17.84
2022-09-09T19:10:05.035Z,17.790001
2022-09-09T19:13:30.232Z,17.76
2022-09-09T19:16:55.463Z,17.75
2022-09-09T19:20:20.736Z,17.73
2022-09-09T19:23:45.965Z,17.709999
2022-09-09T19:27:11.207Z,17.67
2022-09-09T19:30:36.465Z,17.610001
2022-09-09T19:34:01.672Z,17.59
2022-09-09T19:37:26.970Z,17.52
2022-09-09T19:40:52.165Z,17.48
2022-09-09T19:44:17.387Z,17.459999
2022-09-09T19:47:42.645Z,17.42
2022-09-09T19:51:07.889Z,17.389999
2022-09-09T19:54:33.160Z,17.34
2022-09-09T19:57:58.386Z,17.309999
2022-09-09T20:01:23.645Z,17.290001
2022-09-09T20:04:48.887Z,17.27
2022-09-09T20:08:14.075Z,17.200001
2022-09-09T20:11:39.375Z,17.139999
2022-09-09T20:15:04.615Z,17.059999
2022-09-09T20:18:29.847Z,17.01
2022-09-09T20:21:55.050Z,16.950001
2022-09-09T20:25:20.326Z,16.940001
2022-09-09T20:28:45.628Z,16.92
2022-09-09T20:32:10.870Z,16.879999
2022-09-09T20:35:36.145Z,16.85
2022-09-09T20:39:01.387Z,16.83
2022-09-09T20:42:26.612Z,16.84
2022-09-09T20:45:51.886Z,16.860001
2022-09-09T20:49:17.048Z,16.9
2022-09-09T20:52:42.291Z,16.92
2022-09-09T20:56:07.533Z,16.93
2022-09-09T20:59:32.789Z,16.940001
2022-09-09T21:02:58.036Z,16.959999
2022-09-09T21:06:23.244Z,16.98
2022-09-09T21:09:48.499Z,16.98
2022-09-09T21:13:13.709Z,16.969999
2022-09-09T21:16:38.921Z,16.969999
2022-09-09T21:20:04.191Z,16.940001
2022-09-09T21:23:29.421Z,16.91
2022-09-09T21:26:54.659Z,16.870001
2022-09-09T21:30:20.645Z,16.83
2022-09-09T21:33:45.101Z,16.809999
2022-09-09T21:37:10.345Z,16.799999
2022-09-09T21:40:35.537Z,16.799999
2022-09-09T21:44:00.801Z,16.76
2022-09-09T21:47:26.053Z,16.75
2022-09-09T21:50:51.282Z,16.77
2022-09-09T21:54:16.529Z,16.780001
2022-09-09T21:57:41.761Z,16.780001
2022-09-09T22:01:06.999Z,16.77
2022-09-09T22:04:32.241Z,16.75
2022-09-09T22:07:57.477Z,16.73
2022-09-09T22:11:22.781Z,16.74
2022-09-09T22:14:47.946Z,16.74
2022-09-09T22:18:13.210Z,16.74
2022-09-09T22:21:38.421Z,16.74
2022-09-09T22:25:03.653Z,16.76
2022-09-09T22:28:28.942Z,16.75
2022-09-09T22:31:54.144Z,16.73
2022-09-09T22:35:19.396Z,16.690001
2022-09-09T22:38:44.623Z,16.709999
2022-09-09T22:42:09.855Z,16.73
2022-09-09T22:45:35.124Z,16.73
2022-09-09T22:49:00.357Z,16.719999
2022-09-09T22:52:25.547Z,16.68
2022-09-09T22:55:50.763Z,16.65
2022-09-09T22:59:16.005Z,16.6
2022-09-09T23:02:41.239Z,16.559999
2022-09-09T23:06:06.383Z,16.52
2022-09-09T23:09:31.627Z,16.49
2022-09-09T23:12:56.860Z,16.459999
2022-09-09T23:16:22.157Z,16.41
2022-09-09T23:19:47.315Z,16.389999
2022-09-09T23:23:12.492Z,16.4
2022-09-09T23:26:37.702Z,16.42
2022-09-09T23:30:02.953Z,16.41
2022-09-09T23:33:28.166Z,16.41
2022-09-09T23:36:53.382Z,16.389999
2022-09-09T23:40:18.545Z,16.379999
2022-09-09T23:43:43.838Z,16.35
2022-09-09T23:47:09.038Z,16.370001
2022-09-09T23:50:34.258Z,16.389999
2022-09-09T23:53:59.531Z,16.4
2022-09-09T23:57:24.676Z,16.41
